X

Important NEWS



New Hub Active

Miami is our new hub! Old members can request transfer via hr@dlxairways.net

Thank you very much and have nice flight.


Deluxe Airways.

X

Tours



Hello again, we created one nice test tour for all pilots to attend. also this is ment to be testing of our tour system

Available Tours

If you find some issues please inform us.

Thank you very much and have nice flight.


Deluxe Airways.

 METAR AND TAF INFORMATION
ArrayMETAR FOR CYUL
99417016 3 CYUL 231238Z 27017G22KT 4SM R24L/5500VP6000FT/U -SN BR BKN020 OVC035 M04/M08 A2970 RMK SC5SC3 SLP061 CYUL 2019-03-23T12:38:00Z 45.47 -73.73 -4.0 -8.0 270 17 22 4.0 29.698818 1006.1 -SN BR MVFR SPECI 36.0 CYUL 231228Z 26014G21KT 1 1/2SM -SN BR FEW009 SCT016 OVC028 M05/M07 A2970 RMK SF1SC3SC5 SF TR SLP059 CYUL 2019-03-23T12:28:00Z 45.47 -73.73 -5.0 -7.0 260 14 21 1.5 29.698818 1005.9 -SN BR IFR SPECI 36.0 CYUL 231215Z 26015G20KT 1SM R06L/P6000FT/U R24R/P6000FT/U R24L/4500VP6000FT/N -SN BR SCT009 OVC020 M05/M07 A2969 RMK SF3SC5 SLP057 CYUL 2019-03-23T12:15:00Z 45.47 -73.73 -5.0 -7.0 260 15 20 1.0 29.68996 1005.7 -SN BR IFR SPECI 36.0 CYUL 231200Z 27018KT 1 1/4SM R24L/4500VP6000FT/D -SN BR FEW009 BKN013 OVC025 M05/M07 A2968 RMK SF1SF4SC3 SLP055 CYUL 2019-03-23T12:00:00Z 45.47 -73.73 -5.0 -7.0 270 18 1.25 29.681103 1005.5 -SN BR IFR SPECI 36.0 CYUL 231152Z 27015G21KT 1 1/2SM -SN BR BKN014 OVC028 M05/M07 A2968 RMK SF5SC3 SLP053 CYUL 2019-03-23T11:52:00Z 45.47 -73.73 -5.0 -7.0 270 15 21 1.5 29.681103 1005.3 -SN BR IFR SPECI 36.0 CYUL 231141Z 27015KT 1 1/2SM R24L/5000VP6000FT/U -SN BR FEW009 BKN018 OVC033 M05/M07 A2967 RMK SF1SC5SC3 SF TR SLP051 CYUL 2019-03-23T11:41:00Z 45.47 -73.73 -5.0 -7.0 270 15 1.5 29.66929 1005.1 -SN BR IFR SPECI 36.0

 AIRPORT MAP

 RUNWAY INFORMATION
Runway 06L Runway length 11000 ft Runway width 200 ft
Runway elevation 96 ft Runway displaced threshold 0 ft Runway heading 43
Runway 24R Runway length 11000 ft Runway width 200 ft
Runway elevation 106 ft Runway displaced threshold 0 ft Runway heading 223
Runway 06R Runway length 9600 ft Runway width 200 ft
Runway elevation 98 ft Runway displaced threshold 0 ft Runway heading 41
Runway 24L Runway length 9600 ft Runway width 200 ft
Runway elevation 117 ft Runway displaced threshold 0 ft Runway heading 221
Runway 10 Runway length 7000 ft Runway width 200 ft
Runway elevation 96 ft Runway displaced threshold 0 ft Runway heading 88
Runway 28 Runway length 7000 ft Runway width 200 ft
Runway elevation 99 ft Runway displaced threshold 0 ft Runway heading 268

 AIRPORT FREQUENCIES
Type APRON Name Montreal A Frequency 122.075 MHZ
Type ARR Name Montreal T Frequency 118.9 MHZ
Type ARR Name Montreal T Frequency 126.9 MHZ
Type ATIS Name French ATI Frequency 127.5 MHZ
Type ATIS Name English AT Frequency 133.7 MHZ
Type CLNC DEL Name Montreal C Frequency 125.6 MHZ
Type DEP Name Montreal T Frequency 118.9 MHZ
Type GND Name Montreal G Frequency 121.9 MHZ
Type RCO Name Quebec Rad Frequency 123.55 MHZ
Type TWR Name Montreal T Frequency 119.9 MHZ
Type VFR ADV Name Montreal T Frequency 134.15 MHZ

 AIRPORT NEAR NAVIGATION AIDS
Type DME Name Montreal Dorval Intl Frequency 110500 KHZ
Type DME Name Montreal Frequency 109300 KHZ
Type NDB Name Montreal Frequency 248 KHZ
Type VOR-DME Name Montreal Frequency 116300 KHZ
Type NDB Name Valois Frequency 201 KHZ
Type NDB Name Jarry Frequency 284 KHZ
Type NDB Name Rockland Frequency 348 KHZ



Powered by Virtual Airlines Manager [v2.6.2]

Template code change by DeluxeAir